createdAt,value
2017-12-12T00:00:23.521Z,85.41
2017-12-12T00:01:04.093Z,85.13
2017-12-12T00:01:44.706Z,86.27
2017-12-12T00:02:25.275Z,84.8
2017-12-12T00:03:05.798Z,84.61
2017-12-12T00:03:46.338Z,85.56
2017-12-12T00:04:26.909Z,85.66
2017-12-12T00:05:07.420Z,85.13
2017-12-12T00:05:47.934Z,85.18
2017-12-12T00:06:28.465Z,84.42
2017-12-12T00:07:09.003Z,84.61
2017-12-12T00:07:49.578Z,85.28
2017-12-12T00:08:30.134Z,85.28
2017-12-12T00:09:10.671Z,85.28
2017-12-12T00:09:51.218Z,85.47
2017-12-12T00:10:31.754Z,84.99
2017-12-12T00:11:12.334Z,85.18
2017-12-12T00:11:52.852Z,84.23
2017-12-12T00:12:33.385Z,84.36
2017-12-12T00:13:13.939Z,84.61
2017-12-12T00:13:54.487Z,84.7
2017-12-12T00:14:35.045Z,84.33
2017-12-12T00:15:15.576Z,84.61
2017-12-12T00:15:56.153Z,84.61
2017-12-12T00:16:36.687Z,83.85
2017-12-12T00:17:17.295Z,83.94
2017-12-12T00:17:57.828Z,83.94
2017-12-12T00:18:38.344Z,83.85
2017-12-12T00:19:18.950Z,84.04
2017-12-12T00:19:59.468Z,83.65
2017-12-12T00:20:40.060Z,83.56
2017-12-12T00:21:20.587Z,83.94
2017-12-12T00:22:01.129Z,84.23
2017-12-12T00:22:41.664Z,83.75
2017-12-12T00:23:22.215Z,83.65
2017-12-12T00:24:02.713Z,83.56
2017-12-12T00:24:43.297Z,83.75
2017-12-12T00:25:23.858Z,83.65
2017-12-12T00:26:04.371Z,83.47
2017-12-12T00:26:44.920Z,83.47
2017-12-12T00:27:25.502Z,83.65
2017-12-12T00:28:06.028Z,82.61
2017-12-12T00:28:46.597Z,83.85
2017-12-12T00:29:27.077Z,83.75
2017-12-12T00:30:07.641Z,83.28
2017-12-12T00:30:48.181Z,83.75
2017-12-12T00:31:28.748Z,83.56
2017-12-12T00:32:09.270Z,84.61
2017-12-12T00:32:49.799Z,83.85
2017-12-12T00:33:30.372Z,83.75
2017-12-12T00:34:10.906Z,83.56
2017-12-12T00:34:51.420Z,83.47
2017-12-12T00:35:31.981Z,83.65
2017-12-12T00:36:12.514Z,83.47
2017-12-12T00:36:53.031Z,83.75
2017-12-12T00:37:33.568Z,83.65
2017-12-12T00:38:14.113Z,83.65
2017-12-12T00:38:54.682Z,83.37
2017-12-12T00:39:35.155Z,83.85
2017-12-12T00:40:15.766Z,84.04
2017-12-12T00:40:56.298Z,84.04
2017-12-12T00:41:36.790Z,83.85
2017-12-12T00:42:17.320Z,84.04
2017-12-12T00:42:57.861Z,83.47
2017-12-12T00:43:38.414Z,83.56
2017-12-12T00:44:18.971Z,83.56
2017-12-12T00:44:59.524Z,84.04
2017-12-12T00:45:40.039Z,83.85
2017-12-12T00:46:20.616Z,84.04
2017-12-12T00:47:01.120Z,84.23
2017-12-12T00:47:41.667Z,83.85
2017-12-12T00:48:22.195Z,83.85
2017-12-12T00:49:02.715Z,82.8
2017-12-12T00:49:43.249Z,83.09
2017-12-12T00:50:23.808Z,83.94
2017-12-12T00:51:04.365Z,82.9
2017-12-12T00:51:44.863Z,82.48
2017-12-12T00:52:25.405Z,83.28
2017-12-12T00:53:05.915Z,82.9
2017-12-12T00:53:46.481Z,82.23
2017-12-12T00:54:27.032Z,82.7
2017-12-12T00:55:07.553Z,82.51
2017-12-12T00:55:48.108Z,82.23
2017-12-12T00:56:28.644Z,81.47
2017-12-12T00:57:09.187Z,81.18
2017-12-12T00:57:49.669Z,81.56
2017-12-12T00:58:30.236Z,80.71
2017-12-12T00:59:10.770Z,81.09
2017-12-12T00:59:51.317Z,81.76
2017-12-12T01:00:31.831Z,81.85
2017-12-12T01:01:12.395Z,80.9
2017-12-12T01:01:52.918Z,80.71
2017-12-12T01:02:33.476Z,80.9
2017-12-12T01:03:13.993Z,81.09
2017-12-12T01:03:54.557Z,80.9
2017-12-12T01:04:35.090Z,80.8
2017-12-12T01:05:15.692Z,81.09
2017-12-12T01:05:56.193Z,80.42
2017-12-12T01:06:36.774Z,80.23
2017-12-12T01:07:17.244Z,80.04
2017-12-12T01:07:57.806Z,80.23
2017-12-12T01:08:38.386Z,80.04
2017-12-12T01:09:18.954Z,79.94
2017-12-12T01:09:59.493Z,79.75
2017-12-12T01:10:39.979Z,79.47
2017-12-12T01:11:20.501Z,79.57
2017-12-12T01:12:01.051Z,78.8
2017-12-12T01:12:41.608Z,78.8
2017-12-12T01:13:22.170Z,78.94
2017-12-12T01:14:02.728Z,79.28
2017-12-12T01:14:43.255Z,79.47
2017-12-12T01:15:23.970Z,79.28
2017-12-12T01:16:04.538Z,79.85
2017-12-12T01:16:45.064Z,80.04
2017-12-12T01:17:25.646Z,80.04
2017-12-12T01:18:06.184Z,78.99
2017-12-12T01:18:46.714Z,79.38
2017-12-12T01:19:27.250Z,80.23
2017-12-12T01:20:07.748Z,80.52
2017-12-12T01:20:48.263Z,80.42
2017-12-12T01:21:28.804Z,80.71
2017-12-12T01:22:09.340Z,80.9
2017-12-12T01:22:49.875Z,81.18
2017-12-12T01:23:30.439Z,81.66
2017-12-12T01:24:10.958Z,80.99
2017-12-12T01:24:51.539Z,81.95
2017-12-12T01:25:32.074Z,81.28
2017-12-12T01:26:12.579Z,81.37
2017-12-12T01:26:53.106Z,81.76
2017-12-12T01:27:33.704Z,81.76
2017-12-12T01:28:14.206Z,81.81
2017-12-12T01:28:54.789Z,81.37
2017-12-12T01:29:35.336Z,81.37
2017-12-12T01:30:15.869Z,81.37
2017-12-12T01:30:56.452Z,81.76
2017-12-12T01:31:36.965Z,81.76
2017-12-12T01:32:17.561Z,81.47
2017-12-12T01:32:58.095Z,82.04
2017-12-12T01:33:38.666Z,81.18
2017-12-12T01:34:19.237Z,80.8
2017-12-12T01:34:59.742Z,79.85
2017-12-12T01:35:40.280Z,79.75
2017-12-12T01:36:20.832Z,80.13
2017-12-12T01:37:01.397Z,80.04
2017-12-12T01:37:41.915Z,80.33
2017-12-12T01:38:22.470Z,81.28
2017-12-12T01:39:03.002Z,80.8
2017-12-12T01:39:43.547Z,80.8
2017-12-12T01:40:24.082Z,81.09
2017-12-12T01:41:04.595Z,80.42
2017-12-12T01:41:45.138Z,80.23
2017-12-12T01:42:25.695Z,79.19
2017-12-12T01:43:06.219Z,78.9
2017-12-12T01:43:46.785Z,78.8
2017-12-12T01:44:27.383Z,78.8
2017-12-12T01:45:07.907Z,78.8
2017-12-12T01:45:48.449Z,78.61
2017-12-12T01:46:28.962Z,78.52
2017-12-12T01:47:09.509Z,77.95
2017-12-12T01:47:50.063Z,77.62
2017-12-12T01:48:30.548Z,77.62
2017-12-12T01:49:11.083Z,77.24
2017-12-12T01:49:51.637Z,77.24
2017-12-12T01:50:32.178Z,77.34
2017-12-12T01:51:12.674Z,76.2
2017-12-12T01:51:53.179Z,75.34
2017-12-12T01:52:33.795Z,76.1
2017-12-12T01:53:14.323Z,76.1
2017-12-12T01:53:54.907Z,76.1
2017-12-12T01:54:35.434Z,76.01
2017-12-12T01:55:15.969Z,75.91
2017-12-12T01:55:56.508Z,75.81
2017-12-12T01:56:37.033Z,75.62
2017-12-12T01:57:17.599Z,75.05
2017-12-12T01:57:58.168Z,74.87
2017-12-12T01:58:38.691Z,74.82
2017-12-12T01:59:19.202Z,75.34
2017-12-12T01:59:59.797Z,75.4
2017-12-12T02:00:40.283Z,75.34
2017-12-12T02:01:20.797Z,75.59
2017-12-12T02:02:01.393Z,75.21
2017-12-12T02:02:41.900Z,74.16
2017-12-12T02:03:22.425Z,74.73
2017-12-12T02:04:02.975Z,74.54
2017-12-12T02:04:43.482Z,75.3
2017-12-12T02:05:24.027Z,75.4
2017-12-12T02:06:04.561Z,75.4
2017-12-12T02:06:45.099Z,74.35
2017-12-12T02:07:25.595Z,74.26
2017-12-12T02:08:06.120Z,74.82
2017-12-12T02:08:46.668Z,74.54
2017-12-12T02:09:27.276Z,74.26
2017-12-12T02:10:07.807Z,73.88
2017-12-12T02:10:48.326Z,73.69
2017-12-12T02:11:28.911Z,73.49
2017-12-12T02:12:09.416Z,73.59
2017-12-12T02:12:49.967Z,73.21
2017-12-12T02:13:30.490Z,73.02
2017-12-12T02:14:11.033Z,73.4
2017-12-12T02:14:51.574Z,73.3
2017-12-12T02:15:32.100Z,73.59
2017-12-12T02:16:12.607Z,73.97
2017-12-12T02:16:53.166Z,73.69
2017-12-12T02:17:33.688Z,73.59
2017-12-12T02:18:14.204Z,73.4
2017-12-12T02:18:54.727Z,73.88
2017-12-12T02:19:35.240Z,73.88
2017-12-12T02:20:15.788Z,74.07
2017-12-12T02:20:56.292Z,74.26
2017-12-12T02:21:36.845Z,74.16
2017-12-12T02:22:17.371Z,74.16
2017-12-12T02:22:57.940Z,74.22
2017-12-12T02:23:38.482Z,74.31
2017-12-12T02:24:19.030Z,74.22
2017-12-12T02:24:59.554Z,74.31
2017-12-12T02:25:40.087Z,74.51
2017-12-12T02:26:20.593Z,75.26
2017-12-12T02:27:01.172Z,74.79
2017-12-12T02:27:41.688Z,75.55
2017-12-12T02:28:22.218Z,75.45
2017-12-12T02:29:02.756Z,75.17
2017-12-12T02:29:43.275Z,75.26
2017-12-12T02:30:23.806Z,74.98
2017-12-12T02:31:04.340Z,75.36
2017-12-12T02:31:44.926Z,75.45
2017-12-12T02:32:25.468Z,75.26
2017-12-12T02:33:05.973Z,75.36
2017-12-12T02:33:46.511Z,74.69
2017-12-12T02:34:27.074Z,75.17
2017-12-12T02:35:07.601Z,75.55
2017-12-12T02:35:48.129Z,75.74
2017-12-12T02:36:28.637Z,75.93
2017-12-12T02:37:09.201Z,75.93
2017-12-12T02:37:49.738Z,76.12
2017-12-12T02:38:30.278Z,76.03
2017-12-12T02:39:10.874Z,75.93
2017-12-12T02:39:51.450Z,76.12
2017-12-12T02:40:31.965Z,75.84
2017-12-12T02:41:12.537Z,75.84
2017-12-12T02:41:53.098Z,75.74
2017-12-12T02:42:33.640Z,76.4
2017-12-12T02:43:14.140Z,76.4
2017-12-12T02:43:54.724Z,76.21
2017-12-12T02:44:35.204Z,76.4
2017-12-12T02:45:15.755Z,76.21
2017-12-12T02:45:56.340Z,76.59
2017-12-12T02:46:36.823Z,76.12
2017-12-12T02:47:17.395Z,76.5
2017-12-12T02:47:57.971Z,75.84
2017-12-12T02:48:38.515Z,76.5
2017-12-12T02:49:19.071Z,75.93
2017-12-12T02:49:59.770Z,75.55
2017-12-12T02:50:40.315Z,75.45
2017-12-12T02:51:20.923Z,75.93
2017-12-12T02:52:01.470Z,75.26
2017-12-12T02:52:42.027Z,75.45
2017-12-12T02:53:22.522Z,75.36
2017-12-12T02:54:03.124Z,75.45
2017-12-12T02:54:43.684Z,75.45
2017-12-12T02:55:24.260Z,75.55
2017-12-12T02:56:04.836Z,75.36
2017-12-12T02:56:45.338Z,75.26
2017-12-12T02:57:25.961Z,75.74
2017-12-12T02:58:06.495Z,76.4
2017-12-12T02:58:47.059Z,76.31
2017-12-12T02:59:27.578Z,75.74
2017-12-12T03:00:08.119Z,76.12
2017-12-12T03:00:48.643Z,75.74
2017-12-12T03:01:29.209Z,76.4
2017-12-12T03:02:09.749Z,76.31
2017-12-12T03:02:50.360Z,76.21
2017-12-12T03:03:30.879Z,76.31
2017-12-12T03:04:11.375Z,76.5
2017-12-12T03:04:51.865Z,76.69
2017-12-12T03:05:32.407Z,75.84
2017-12-12T03:06:13.058Z,76.03
2017-12-12T03:06:53.568Z,75.93
2017-12-12T03:07:34.139Z,75.36
2017-12-12T03:08:14.701Z,75.26
2017-12-12T03:08:55.217Z,75.26
2017-12-12T03:09:35.781Z,75.07
2017-12-12T03:10:16.348Z,75.45
2017-12-12T03:10:56.870Z,75.55
2017-12-12T03:11:37.470Z,74.79
2017-12-12T03:12:17.960Z,74.79
2017-12-12T03:12:58.509Z,75.36
2017-12-12T03:13:39.088Z,75.17
2017-12-12T03:14:19.590Z,75.26
2017-12-12T03:15:00.174Z,75.07
2017-12-12T03:15:40.694Z,75.07
2017-12-12T03:16:21.278Z,75.36
2017-12-12T03:17:01.750Z,75.45
2017-12-12T03:17:42.263Z,75.36
2017-12-12T03:18:22.820Z,75.36
2017-12-12T03:19:03.396Z,75.36
2017-12-12T03:19:43.936Z,75.26
2017-12-12T03:20:24.484Z,75.93
2017-12-12T03:21:05.003Z,76.12
2017-12-12T03:21:45.570Z,76.31
2017-12-12T03:22:26.093Z,76.12
2017-12-12T03:23:06.636Z,76.88
2017-12-12T03:23:47.146Z,77.17
2017-12-12T03:24:27.654Z,76.88
2017-12-12T03:25:08.196Z,77.45
2017-12-12T03:25:48.743Z,77.26
2017-12-12T03:26:29.306Z,77.55
2017-12-12T03:27:09.836Z,77.83
2017-12-12T03:27:50.382Z,77.73
2017-12-12T03:28:30.938Z,78.11
2017-12-12T03:29:11.483Z,78.3
2017-12-12T03:29:51.982Z,77.64
2017-12-12T03:30:32.538Z,77.83
2017-12-12T03:31:13.084Z,77.92
2017-12-12T03:31:53.582Z,78.3
2017-12-12T03:32:34.217Z,77.55
2017-12-12T03:33:14.701Z,77.92
2017-12-12T03:33:55.262Z,77.92
2017-12-12T03:34:35.777Z,78.02
2017-12-12T03:35:16.352Z,78.78
2017-12-12T03:35:56.889Z,78.97
2017-12-12T03:36:37.441Z,79.16
2017-12-12T03:37:17.978Z,78.4
2017-12-12T03:37:58.541Z,79.35
2017-12-12T03:38:39.067Z,79.06
2017-12-12T03:39:19.618Z,79.16
2017-12-12T03:40:00.139Z,78.59
2017-12-12T03:40:40.665Z,78.78
2017-12-12T03:41:21.203Z,78.21
2017-12-12T03:42:01.724Z,78.59
2017-12-12T03:42:42.253Z,78.11
2017-12-12T03:43:22.753Z,78.78
2017-12-12T03:44:03.293Z,78.21
2017-12-12T03:44:43.817Z,78.11
2017-12-12T03:45:24.365Z,77.73
2017-12-12T03:46:04.980Z,78.3
2017-12-12T03:46:45.490Z,77.83
2017-12-12T03:47:25.975Z,78.59
2017-12-12T03:48:06.538Z,78.11
2017-12-12T03:48:47.072Z,78.69
2017-12-12T03:49:27.591Z,78.5
2017-12-12T03:50:08.126Z,79.03
2017-12-12T03:50:48.705Z,79.54
2017-12-12T03:51:29.251Z,79.35
2017-12-12T03:52:09.797Z,79.44
2017-12-12T03:52:50.380Z,78.97
2017-12-12T03:53:30.847Z,78.78
2017-12-12T03:54:11.368Z,79.16
2017-12-12T03:54:51.948Z,79.16
2017-12-12T03:55:32.460Z,79.25
2017-12-12T03:56:13.001Z,79.06
2017-12-12T03:56:53.554Z,78.88
2017-12-12T03:57:34.081Z,77.92
2017-12-12T03:58:14.644Z,78.69
2017-12-12T03:58:55.255Z,78.59
2017-12-12T03:59:35.667Z,78.4
2017-12-12T04:00:16.208Z,79.35
2017-12-12T04:00:56.715Z,79.63
2017-12-12T04:01:37.316Z,79.54
2017-12-12T04:02:17.845Z,79.54
2017-12-12T04:02:58.390Z,79.73
2017-12-12T04:03:38.873Z,79.92
2017-12-12T04:04:19.406Z,79.92
2017-12-12T04:04:59.970Z,79.54
2017-12-12T04:05:40.540Z,79.73
2017-12-12T04:06:21.062Z,80.21
2017-12-12T04:07:01.627Z,80.4
2017-12-12T04:07:42.125Z,80.96
2017-12-12T04:08:22.651Z,81.73
2017-12-12T04:09:03.237Z,81.92
2017-12-12T04:09:43.779Z,81.73
2017-12-12T04:10:24.360Z,81.25
2017-12-12T04:11:04.859Z,82.39
2017-12-12T04:11:45.381Z,82.2
2017-12-12T04:12:25.910Z,82.39
2017-12-12T04:13:06.451Z,82.1
2017-12-12T04:13:46.969Z,82.2
2017-12-12T04:14:27.479Z,83.06
2017-12-12T04:15:08.017Z,82.77
2017-12-12T04:15:48.569Z,82.96
2017-12-12T04:16:29.124Z,82.68
2017-12-12T04:17:09.623Z,82.29
2017-12-12T04:17:50.169Z,82.29
2017-12-12T04:18:30.735Z,81.92
2017-12-12T04:19:11.300Z,81.35
2017-12-12T04:19:51.758Z,81.35
2017-12-12T04:20:32.314Z,81.82
2017-12-12T04:21:12.825Z,81.35
2017-12-12T04:21:53.431Z,81.97
2017-12-12T04:22:33.969Z,81.82
2017-12-12T04:23:14.467Z,81.49
2017-12-12T04:23:54.994Z,81.54
2017-12-12T04:24:35.577Z,81.92
2017-12-12T04:25:16.046Z,81.44
2017-12-12T04:25:56.643Z,81.3
2017-12-12T04:26:37.158Z,81.16
2017-12-12T04:27:17.692Z,80.77
2017-12-12T04:27:58.235Z,80.68
2017-12-12T04:28:38.805Z,80.49
2017-12-12T04:29:19.344Z,80.4
2017-12-12T04:29:59.874Z,80.11
2017-12-12T04:30:40.422Z,80.21
2017-12-12T04:31:20.954Z,80.02
2017-12-12T04:32:01.461Z,80.11
2017-12-12T04:32:41.986Z,79.92
2017-12-12T04:33:22.526Z,79.92
2017-12-12T04:34:03.065Z,80.21
2017-12-12T04:34:43.583Z,79.97
2017-12-12T04:35:24.178Z,79.92
2017-12-12T04:36:04.677Z,79.88
2017-12-12T04:36:45.229Z,80.74
2017-12-12T04:37:25.791Z,80.58
2017-12-12T04:38:06.295Z,80.77
2017-12-12T04:38:46.922Z,80.77
2017-12-12T04:39:27.407Z,80.87
2017-12-12T04:40:07.933Z,80.96
2017-12-12T04:40:48.455Z,81.16
2017-12-12T04:41:29.008Z,81.35
2017-12-12T04:42:09.644Z,80.77
2017-12-12T04:42:50.166Z,80.87
2017-12-12T04:43:30.704Z,80.68
2017-12-12T04:44:11.229Z,81.16
2017-12-12T04:44:51.754Z,81.12
2017-12-12T04:45:32.328Z,81.16
2017-12-12T04:46:12.897Z,81.35
2017-12-12T04:46:53.404Z,81.35
2017-12-12T04:47:33.926Z,80.96
2017-12-12T04:48:14.484Z,81.06
2017-12-12T04:48:55.041Z,81.35
2017-12-12T04:49:35.568Z,81.06
2017-12-12T04:50:16.135Z,80.96
2017-12-12T04:50:56.630Z,80.77
2017-12-12T04:51:37.153Z,80.96
2017-12-12T04:52:17.739Z,80.96
2017-12-12T04:52:58.292Z,80.77
2017-12-12T04:53:38.826Z,80.64
2017-12-12T04:54:19.418Z,81.12
2017-12-12T04:54:59.907Z,81.59
2017-12-12T04:55:40.413Z,81.59
2017-12-12T04:56:20.985Z,81.73
2017-12-12T04:57:01.522Z,81.4
2017-12-12T04:57:42.062Z,81.78
2017-12-12T04:58:22.609Z,82.1
2017-12-12T04:59:03.124Z,82.39
2017-12-12T04:59:43.640Z,81.97
2017-12-12T05:00:24.169Z,82.87
2017-12-12T05:01:04.690Z,82.68
2017-12-12T05:01:45.245Z,82.2
2017-12-12T05:02:25.779Z,82.64
2017-12-12T05:03:06.287Z,82.68
2017-12-12T05:03:46.842Z,82.54
2017-12-12T05:04:27.389Z,82.54
2017-12-12T05:05:07.963Z,82.73
2017-12-12T05:05:48.472Z,83.2
2017-12-12T05:06:29.012Z,83.11
2017-12-12T05:07:09.610Z,82.87
2017-12-12T05:07:50.173Z,83.11
2017-12-12T05:08:30.624Z,83.3
2017-12-12T05:09:11.180Z,83.39
2017-12-12T05:09:51.758Z,83.39
2017-12-12T05:10:32.249Z,83.59
2017-12-12T05:11:12.836Z,84.25
2017-12-12T05:11:53.386Z,83.78
2017-12-12T05:12:33.933Z,84.16
2017-12-12T05:13:14.521Z,84.25
2017-12-12T05:13:54.994Z,83.78
2017-12-12T05:14:35.548Z,83.97
2017-12-12T05:15:16.039Z,83.68
2017-12-12T05:15:56.570Z,84.25
2017-12-12T05:16:37.126Z,83.49
2017-12-12T05:17:17.673Z,83.68
2017-12-12T05:17:58.220Z,83.78
2017-12-12T05:18:38.744Z,83.3
2017-12-12T05:19:19.313Z,83.68
2017-12-12T05:19:59.869Z,84.06
2017-12-12T05:20:40.446Z,83.49
2017-12-12T05:21:21.002Z,83.11
2017-12-12T05:22:01.523Z,82.92
2017-12-12T05:22:42.059Z,82.73
2017-12-12T05:23:22.557Z,83.3
2017-12-12T05:24:03.077Z,83.01
2017-12-12T05:24:43.683Z,83.11
2017-12-12T05:25:24.235Z,82.45
2017-12-12T05:26:04.744Z,83.01
2017-12-12T05:26:45.288Z,82.73
2017-12-12T05:27:25.802Z,83.01
2017-12-12T05:28:06.366Z,82.45
2017-12-12T05:28:46.864Z,81.68
2017-12-12T05:29:27.403Z,81.68
2017-12-12T05:30:07.983Z,81.87
2017-12-12T05:30:48.520Z,81.59
2017-12-12T05:31:29.060Z,81.68
2017-12-12T05:32:09.639Z,81.97
2017-12-12T05:32:50.156Z,81.59
2017-12-12T05:33:30.732Z,81.59
2017-12-12T05:34:11.232Z,81.59
2017-12-12T05:34:51.733Z,81.4
2017-12-12T05:35:32.294Z,81.49
2017-12-12T05:36:12.804Z,81.59
2017-12-12T05:36:53.418Z,81.4
2017-12-12T05:37:33.924Z,81.68
2017-12-12T05:38:14.417Z,81.49
2017-12-12T05:38:55.001Z,81.49
2017-12-12T05:39:35.591Z,80.74
2017-12-12T05:40:16.100Z,81.12
2017-12-12T05:40:56.648Z,81.16
2017-12-12T05:41:37.231Z,81.73
2017-12-12T05:42:17.729Z,81.16
2017-12-12T05:42:58.272Z,80.77
2017-12-12T05:43:38.826Z,80.68
2017-12-12T05:44:19.372Z,80.77
2017-12-12T05:44:59.960Z,80.64
2017-12-12T05:45:40.442Z,80.77
2017-12-12T05:46:21.024Z,80.55
2017-12-12T05:47:01.530Z,80.64
2017-12-12T05:47:42.073Z,80.93
2017-12-12T05:48:22.672Z,80.45
2017-12-12T05:49:03.149Z,80.93
2017-12-12T05:49:43.679Z,80.68
2017-12-12T05:50:24.222Z,80.96
2017-12-12T05:51:04.768Z,80.26
2017-12-12T05:51:45.303Z,80.45
2017-12-12T05:52:25.794Z,80.21
2017-12-12T05:53:06.364Z,80.3
2017-12-12T05:53:46.890Z,80.21
2017-12-12T05:54:27.425Z,80.11
2017-12-12T05:55:07.972Z,80.21
2017-12-12T05:55:48.490Z,80.11
2017-12-12T05:56:29.074Z,80.02
2017-12-12T05:57:09.606Z,78.78
2017-12-12T05:57:50.106Z,78.97
2017-12-12T05:58:30.686Z,79.44
2017-12-12T05:59:11.181Z,78.78
2017-12-12T05:59:51.744Z,78.78
2017-12-12T06:00:32.264Z,78.4
2017-12-12T06:01:12.805Z,78.97
2017-12-12T06:01:53.356Z,78.69
2017-12-12T06:02:33.880Z,78.5
2017-12-12T06:03:14.397Z,78.69
2017-12-12T06:03:54.945Z,78.78
2017-12-12T06:04:35.485Z,78.78
2017-12-12T06:05:16.013Z,79.22
2017-12-12T06:05:56.524Z,78.78
2017-12-12T06:06:37.078Z,79.35
2017-12-12T06:07:17.643Z,79.16
2017-12-12T06:07:58.196Z,78.88
2017-12-12T06:08:38.708Z,78.88
2017-12-12T06:09:19.331Z,78.69
2017-12-12T06:09:59.825Z,78.5
2017-12-12T06:10:40.345Z,79.06
2017-12-12T06:11:20.857Z,78.5
2017-12-12T06:12:01.398Z,78.5
2017-12-12T06:12:41.958Z,78.3
2017-12-12T06:13:22.497Z,78.88
2017-12-12T06:14:03.055Z,79.06
2017-12-12T06:14:43.621Z,78.4
2017-12-12T06:15:24.166Z,78.97
2017-12-12T06:16:04.688Z,79.73
2017-12-12T06:16:45.194Z,79.92
2017-12-12T06:17:25.826Z,79.92
2017-12-12T06:18:06.380Z,80.49
2017-12-12T06:18:46.931Z,80.87
2017-12-12T06:19:27.539Z,80.58
2017-12-12T06:20:08.162Z,80.3
2017-12-12T06:20:48.682Z,81.06
2017-12-12T06:21:29.220Z,81.35
2017-12-12T06:22:09.731Z,81.73
2017-12-12T06:22:50.299Z,81.73
2017-12-12T06:23:30.843Z,81.73
2017-12-12T06:24:11.397Z,81.54
2017-12-12T06:24:51.915Z,81.35
2017-12-12T06:25:33.095Z,82.39
2017-12-12T06:26:13.598Z,82.68
2017-12-12T06:26:54.170Z,81.82
2017-12-12T06:27:36.431Z,82.49
2017-12-12T06:28:15.552Z,82.96
2017-12-12T06:28:56.106Z,83.34
2017-12-12T06:29:36.611Z,82.68
2017-12-12T06:30:18.540Z,82.68
2017-12-12T06:30:58.373Z,82.49
2017-12-12T06:31:38.968Z,81.82
2017-12-12T06:32:19.490Z,81.06
2017-12-12T06:33:00.167Z,81.63
2017-12-12T06:33:40.678Z,82.1
2017-12-12T06:34:21.238Z,82.77
2017-12-12T06:35:02.576Z,82.58
2017-12-12T06:35:43.132Z,82.68
2017-12-12T06:36:23.610Z,81.82
2017-12-12T06:37:04.203Z,82.01
2017-12-12T06:37:44.718Z,82.39
2017-12-12T06:38:25.214Z,83.06
2017-12-12T06:39:05.777Z,81.73
2017-12-12T06:39:46.268Z,83.15
2017-12-12T06:40:26.842Z,83.72
2017-12-12T06:41:07.443Z,82.96
2017-12-12T06:41:47.998Z,82.01
2017-12-12T06:42:28.489Z,82.87
2017-12-12T06:43:09.115Z,82.58
2017-12-12T06:43:49.755Z,81.82
2017-12-12T06:44:30.261Z,81.54
2017-12-12T06:45:10.812Z,82.2
2017-12-12T06:45:51.366Z,82.68
2017-12-12T06:46:31.839Z,82.39
2017-12-12T06:47:12.448Z,82.77
2017-12-12T06:47:53.033Z,83.53
2017-12-12T06:48:33.609Z,84.01
2017-12-12T06:49:14.269Z,83.82
2017-12-12T06:49:54.714Z,82.54
2017-12-12T06:50:35.282Z,83.06
2017-12-12T06:51:15.806Z,83.68
2017-12-12T06:51:56.314Z,82.54
2017-12-12T06:52:36.855Z,82.96
2017-12-12T06:53:17.385Z,83.2
2017-12-12T06:53:57.936Z,83.01
2017-12-12T06:54:38.461Z,83.25
2017-12-12T06:55:18.960Z,83.53
2017-12-12T06:55:59.501Z,84.29
2017-12-12T06:56:40.039Z,83.53
2017-12-12T06:57:20.579Z,83.15
2017-12-12T06:58:01.128Z,83.15
2017-12-12T06:58:41.675Z,83.34
2017-12-12T06:59:22.215Z,82.77
2017-12-12T07:00:02.758Z,82.96
2017-12-12T07:00:43.956Z,83.06
2017-12-12T07:01:23.874Z,85.15
2017-12-12T07:02:04.391Z,84.67
2017-12-12T07:02:44.999Z,83.53
2017-12-12T07:03:25.600Z,85.34
2017-12-12T07:04:06.135Z,95.41
2017-12-12T07:04:46.682Z,99.99
2017-12-12T07:05:27.372Z,99.99
2017-12-12T07:06:08.037Z,99.99
2017-12-12T07:06:48.602Z,99.99
2017-12-12T07:07:29.130Z,99.99
2017-12-12T07:08:09.647Z,99.99
2017-12-12T07:08:50.173Z,99.99
2017-12-12T07:09:30.648Z,99.99
2017-12-12T07:10:11.239Z,99.99
2017-12-12T07:10:51.728Z,99.99
2017-12-12T07:11:32.284Z,99.99
2017-12-12T07:12:12.911Z,99.99
2017-12-12T07:12:53.495Z,96.36
2017-12-12T07:13:34.039Z,92.08
2017-12-12T07:14:14.597Z,90.85
2017-12-12T07:14:55.130Z,91.42
2017-12-12T07:15:35.683Z,90.94
2017-12-12T07:16:16.250Z,94.98
2017-12-12T07:16:56.746Z,99.99
2017-12-12T07:17:37.244Z,99.99
2017-12-12T07:18:17.796Z,99.99
2017-12-12T07:18:58.343Z,99.99
2017-12-12T07:19:38.888Z,99.99
2017-12-12T07:20:19.430Z,99.99
2017-12-12T07:20:59.937Z,99.99
2017-12-12T07:21:40.468Z,99.99
2017-12-12T07:22:21.167Z,99.99
2017-12-12T07:23:01.695Z,99.99
2017-12-12T07:23:42.215Z,99.99
2017-12-12T07:24:22.764Z,99.99
2017-12-12T07:25:03.340Z,99.99
2017-12-12T07:25:43.898Z,99.99
2017-12-12T07:26:24.483Z,96.12
2017-12-12T07:27:05.035Z,93.27
2017-12-12T07:27:45.569Z,90
2017-12-12T07:28:26.117Z,90.85
2017-12-12T07:29:06.635Z,88.57
2017-12-12T07:29:47.176Z,90.85
2017-12-12T07:30:27.709Z,99.99
2017-12-12T07:31:08.305Z,99.99
2017-12-12T07:31:48.808Z,99.99
2017-12-12T07:32:29.341Z,99.99
2017-12-12T07:33:09.863Z,99.99
2017-12-12T07:33:50.391Z,99.99
2017-12-12T07:34:30.958Z,99.99
2017-12-12T07:35:11.476Z,99.99
2017-12-12T07:35:52.054Z,99.99
2017-12-12T07:36:32.621Z,99.45
2017-12-12T07:37:13.148Z,92.99
2017-12-12T07:37:53.711Z,88.85
2017-12-12T07:38:34.247Z,88.95
2017-12-12T07:39:14.803Z,89.42
2017-12-12T07:39:55.349Z,88.67
2017-12-12T07:40:35.821Z,87.14
2017-12-12T07:41:16.400Z,87.71
2017-12-12T07:41:56.983Z,87.81
2017-12-12T07:42:37.530Z,86.86
2017-12-12T07:43:18.099Z,86.95
2017-12-12T07:43:58.595Z,86.38
2017-12-12T07:44:39.114Z,85.15
2017-12-12T07:45:19.728Z,85.15
2017-12-12T07:46:00.288Z,85.24
2017-12-12T07:46:40.754Z,86.29
2017-12-12T07:47:21.304Z,86.86
2017-12-12T07:48:01.852Z,85.81
2017-12-12T07:48:42.414Z,85.24
2017-12-12T07:49:22.965Z,85.91
2017-12-12T07:50:03.577Z,85.34
2017-12-12T07:50:44.343Z,84.77
2017-12-12T07:51:24.802Z,86
2017-12-12T07:52:05.358Z,86.1
2017-12-12T07:52:45.909Z,88.38
2017-12-12T07:53:26.423Z,88.95
2017-12-12T07:54:06.977Z,86.57
2017-12-12T07:54:47.558Z,85.62
2017-12-12T07:55:28.047Z,87.05
2017-12-12T07:56:08.626Z,88.28
2017-12-12T07:56:49.159Z,88.85
2017-12-12T07:57:29.689Z,98.36
2017-12-12T07:58:10.267Z,99.99
2017-12-12T07:58:50.711Z,99.99
2017-12-12T07:59:31.265Z,99.99
2017-12-12T08:00:11.876Z,99.99
2017-12-12T08:00:52.357Z,99.99
2017-12-12T08:01:32.832Z,99.99
2017-12-12T08:02:13.349Z,99.99
2017-12-12T08:02:53.915Z,99.99
2017-12-12T08:03:34.452Z,99.99
2017-12-12T08:04:15.022Z,99.99
2017-12-12T08:04:55.579Z,99.99
2017-12-12T08:05:36.178Z,99.99
2017-12-12T08:06:16.701Z,99.99
2017-12-12T08:06:57.257Z,96.22
2017-12-12T08:07:37.796Z,92.32
2017-12-12T08:08:18.345Z,90.8
2017-12-12T08:08:58.901Z,91.47
2017-12-12T08:09:39.379Z,99.99
2017-12-12T08:10:19.901Z,99.99
2017-12-12T08:11:00.468Z,99.99
2017-12-12T08:11:41.062Z,99.99
2017-12-12T08:12:21.569Z,99.99
2017-12-12T08:13:02.106Z,99.99
2017-12-12T08:13:42.623Z,99.99
2017-12-12T08:14:23.107Z,99.99
2017-12-12T08:15:03.622Z,99.99
2017-12-12T08:15:44.183Z,99.99
2017-12-12T08:16:24.726Z,99.99
2017-12-12T08:17:05.263Z,99.99
2017-12-12T08:17:45.781Z,99.99
2017-12-12T08:18:26.368Z,99.99
2017-12-12T08:19:06.868Z,99.99
2017-12-12T08:19:47.438Z,99.99
2017-12-12T08:20:27.953Z,99.99
2017-12-12T08:21:08.507Z,99.22
2017-12-12T08:21:49.064Z,96.94
2017-12-12T08:22:29.602Z,95.6
2017-12-12T08:23:10.121Z,93.7
2017-12-12T08:23:50.675Z,99.99
2017-12-12T08:24:31.181Z,99.99
2017-12-12T08:25:11.720Z,99.99
2017-12-12T08:25:52.277Z,99.99
2017-12-12T08:26:32.810Z,99.99
2017-12-12T08:27:13.370Z,99.99
2017-12-12T08:27:53.895Z,99.99
2017-12-12T08:28:34.476Z,99.99
2017-12-12T08:29:14.994Z,99.99
2017-12-12T08:29:55.498Z,99.99
2017-12-12T08:30:36.027Z,96.26
2017-12-12T08:31:16.611Z,91.8
2017-12-12T08:31:57.083Z,87.32
2017-12-12T08:32:37.658Z,87.9
2017-12-12T08:33:18.185Z,89.04
2017-12-12T08:33:58.773Z,88.28
2017-12-12T08:34:39.296Z,89.51
2017-12-12T08:35:19.837Z,88.46
2017-12-12T08:36:00.370Z,85.8
2017-12-12T08:36:40.873Z,85.8
2017-12-12T08:37:21.407Z,84.09
2017-12-12T08:38:01.960Z,85.14
2017-12-12T08:38:42.524Z,85.8
2017-12-12T08:39:23.089Z,84.09
2017-12-12T08:40:03.572Z,84.66
2017-12-12T08:40:44.187Z,85.52
2017-12-12T08:41:24.640Z,86.47
2017-12-12T08:42:05.190Z,86.18
2017-12-12T08:42:45.748Z,84.04
2017-12-12T08:43:26.289Z,84.28
2017-12-12T08:44:06.821Z,84.89